Mont Saint Michel — FNMT — position and weather

sailwx.info

Track history (hours):
 
Tides and Currents Weather Stations Pressure Air Temp Water Temp Dewpoint Dewpoint Depression Visibility Wind Speed Wind Dir Waves Ship Positions

Mont Saint Michel

Last reported at 2014-Oct-31 06:33 UTC. Time now 2014-Oct-31 06:59 UTC.
Position N 49°17' W 000°15'.

Length 173 m; beam 29 m.

Type: Ship. MMSI: 227023100.

Date/timePositionNaut miles runAvg speedWind from/ knotsBaromVisibWave heightAir tempDewpointWater temp
2014-Oct-31 06:33N 49°17' W 000°15'9 9.1
2014-Oct-31 05:33N 49°26' W 000°17'1110.9
2014-Oct-31 04:33N 49°36' W 000°24'1111.3
2014-Oct-31 03:33N 49°47' W 000°30'1111.4
2014-Oct-31 02:33N 49°58' W 000°36'1211.5
2014-Oct-31 01:33N 50°09' W 000°41'1515.4
2014-Oct-31 00:33N 50°23' W 000°49'1717.1
2014-Oct-30 23:33N 50°39' W 000°58'1110.8
2014-Oct-30 22:34N 50°49' W 001°06'0 0.0
2014-Oct-30 21:34N 50°49' W 001°06'5 4.7
2014-Oct-30 20:33N 50°44' W 001°04'1717.3
2014-Oct-30 19:33N 50°27' W 000°56'5919.6
2014-Oct-30 16:32N 49°33' W 000°21'1615.0
2014-Oct-30 15:28N 49°17' W 000°15'2 1.1
2014-Oct-30 13:33N 49°19' W 000°15'2120.7
2014-Oct-30 12:33N 49°38' W 000°26'2221.3
2014-Oct-30 11:32N 49°59' W 000°38'2321.6
2014-Oct-30 10:26N 50°21' W 000°51'1820.7
2014-Oct-30 09:33N 50°38' W 000°59'1111.1
2014-Oct-30 08:34N 50°49' W 001°06'0 0.0
2014-Oct-30 07:33N 50°49' W 001°06'0 0.1
2014-Oct-30 06:33N 50°49' W 001°06'1212.0
2014-Oct-30 05:33N 50°37' W 000°59'1211.8
2014-Oct-30 04:33N 50°26' W 000°53'1212.2
2014-Oct-30 03:33N 50°15' W 000°45'2411.6
2014-Oct-30 01:31N 49°53' W 000°32'1110.9
2014-Oct-30 00:32N 49°43' W 000°25'1110.8
2014-Oct-29 23:33N 49°34' W 000°18'1111.1
2014-Oct-29 22:33N 49°23' W 000°15'5 5.1
2014-Oct-29 21:30N 49°17' W 000°15'0 0.0
2014-Oct-29 20:30N 49°17' W 000°15'1213.3
2014-Oct-29 19:33N 49°30' W 000°17'2220.3
2014-Oct-29 18:29N 49°49' W 000°32'2719.2
2014-Oct-29 17:05N 50°14' W 000°46'1019.1
2014-Oct-29 16:33N 50°24' W 000°52'1918.7
2014-Oct-29 15:33N 50°41' W 001°02'8 7.7
2014-Oct-29 14:33N 50°49' W 001°06'0 0.0
2014-Oct-29 13:33N 50°49' W 001°06'4 4.4
2014-Oct-29 12:33N 50°44' W 001°05'1818.4
2014-Oct-29 11:34N 50°28' W 000°51'4720.1
2014-Oct-29 09:12N 49°43' W 000°27'1319.1
2014-Oct-29 08:32N 49°31' W 000°21'1514.8
2014-Oct-29 07:33N 49°17' W 000°15'0 0.0
2014-Oct-29 06:27N 49°17' W 000°15'0 0.1
2014-Oct-29 05:33N 49°17' W 000°15'1413.8
2014-Oct-29 04:33N 49°31' W 000°21'1211.3
2014-Oct-29 03:31N 49°41' W 000°27'3715.8
2014-Oct-29 01:09N 50°17' W 000°47'1016.0
2014-Oct-29 00:33N 50°26' W 000°53'1615.8
2014-Oct-28 23:33N 50°41' W 000°58'9 9.2
2014-Oct-28 22:33N 50°49' W 001°06'0 0.0
2014-Oct-28 21:33N 50°49' W 001°06'5 4.7
2014-Oct-28 20:33N 50°44' W 001°04'1917.8
2014-Oct-28 19:29N 50°26' W 000°55'4719.3
2014-Oct-28 17:03N 49°42' W 000°29'1120.3
2014-Oct-28 16:32N 49°33' W 000°22'1615.0
2014-Oct-28 15:28N 49°17' W 000°15'0 0.0
2014-Oct-28 14:32N 49°17' W 000°15'6 6.0
2014-Oct-28 13:28N 49°24' W 000°16'1819.2
2014-Oct-28 12:31N 49°41' W 000°26'4219.6
2014-Oct-28 10:23N 50°20' W 000°48'1619.4
2014-Oct-28 09:33N 50°35' W 000°57'1514.8
2014-Oct-28 08:33N 50°49' W 001°07'0 0.5
2014-Oct-28 07:34N 50°49' W 001°06'0 0.2
2014-Oct-28 06:34N 50°49' W 001°06'1313.4
2014-Oct-28 05:33N 50°36' W 000°58'1111.3
2014-Oct-28 04:33N 50°25' W 000°54'1111.1
2014-Oct-28 03:33N 50°14' W 000°49'1311.7
2014-Oct-28 02:26N 50°04' W 000°38'1011.6
2014-Oct-28 01:33N 49°54' W 000°32'1111.1
2014-Oct-28 00:33N 49°44' W 000°26'1111.1
2014-Oct-27 23:33N 49°33' W 000°20'1111.1
2014-Oct-27 22:33N 49°23' W 000°15'6 5.5
2014-Oct-27 21:32N 49°17' W 000°15'0 0.0
2014-Oct-27 20:31N 49°17' W 000°15'0 0.0
2014-Oct-27 19:31N 49°17' W 000°15'0 0.0
2014-Oct-27 18:33N 49°17' W 000°15'0 0.0
2014-Oct-27 17:32N 49°17' W 000°15'0 0.0
2014-Oct-27 16:33N 49°17' W 000°15'0 0.0
2014-Oct-27 15:33N 49°17' W 000°15'0 0.0
2014-Oct-27 14:33N 49°17' W 000°15'2 2.1
2014-Oct-27 13:33N 49°19' W 000°14'2019.7
2014-Oct-27 12:33N 49°38' W 000°25'2019.6
2014-Oct-27 11:33N 49°56' W 000°36'2919.3
2014-Oct-27 10:05N 50°23' W 000°50'1019.2
2014-Oct-27 09:34N 50°33' W 000°55'1716.5
2014-Oct-27 08:33N 50°48' W 001°07'1 1.3
2014-Oct-27 07:33N 50°49' W 001°06'0 0.1
2014-Oct-27 06:34N 50°49' W 001°06'1313.1
2014-Oct-27 05:33N 50°37' W 000°58'1110.6
2014-Oct-27 04:32N 50°26' W 000°55'2610.9
2014-Oct-27 02:11N 50°03' W 000°38'711.6
2014-Oct-27 01:33N 49°56' W 000°34'1211.5
2014-Oct-27 00:33N 49°45' W 000°27'1211.5
2014-Oct-26 23:33N 49°34' W 000°21'1111.3
2014-Oct-26 22:33N 49°24' W 000°15'6 6.4
2014-Oct-26 21:33N 49°17' W 000°15'0 0.0
2014-Oct-26 20:33N 49°17' W 000°15'0 0.0
2014-Oct-26 19:33N 49°17' W 000°15'0 0.0
2014-Oct-26 18:33N 49°17' W 000°15'0 0.0
2014-Oct-26 17:33N 49°17' W 000°15'0 0.0
2014-Oct-26 16:33N 49°17' W 000°15'0 0.0
2014-Oct-26 15:33N 49°17' W 000°15'0 0.0
2014-Oct-26 14:33N 49°17' W 000°15'2 2.4
2014-Oct-26 13:33N 49°20' W 000°14'2019.5
2014-Oct-26 12:33N 49°38' W 000°24'3919.3
2014-Oct-26 10:31N 50°15' W 000°44'1818.9
2014-Oct-26 09:33N 50°32' W 000°55'1716.9
2014-Oct-26 08:33N 50°47' W 001°07'1 1.3
2014-Oct-26 07:33N 50°49' W 001°06'0 0.1
2014-Oct-26 06:34N 50°49' W 001°06'1313.3
2014-Oct-26 05:33N 50°37' W 000°56'1312.6
2014-Oct-26 04:33N 50°24' W 000°53'4711.5
2014-Oct-26 00:26N 49°41' W 000°23'1111.7
2014-Oct-25 23:32N 49°31' W 000°19'6 6.5
2014-Oct-25 22:33N 49°25' W 000°17'4 3.3
2014-Oct-25 21:26N 49°22' W 000°14'4 4.8
2014-Oct-25 20:33N 49°17' W 000°15'0 0.0
2014-Oct-25 19:33N 49°17' W 000°15'1111.5
2014-Oct-25 18:33N 49°29' W 000°18'5719.1
2014-Oct-25 15:33N 50°22' W 000°50'1919.3
2014-Oct-25 14:34N 50°40' W 001°00'9 9.3
2014-Oct-25 13:33N 50°49' W 001°06'0 0.0
2014-Oct-25 12:33N 50°49' W 001°06'5 4.6
2014-Oct-25 11:33N 50°44' W 001°04'6720.4
2014-Oct-25 08:16N 49°41' W 000°28'1318.4
2014-Oct-25 07:33N 49°29' W 000°21'1212.1
2014-Oct-25 06:33N 49°17' W 000°15'0 0.0
2014-Oct-25 05:32N 49°17' W 000°15'0 0.1
2014-Oct-25 04:33N 49°17' W 000°15'1616.1
2014-Oct-25 03:33N 49°33' W 000°21'1615.6
2014-Oct-25 02:33N 49°47' W 000°30'4013.2
2014-Oct-24 23:32N 50°25' W 000°52'1616.7
2014-Oct-24 22:33N 50°40' W 000°60'9 9.3
2014-Oct-24 21:33N 50°49' W 001°06'0 0.0
2014-Oct-24 20:33N 50°49' W 001°06'5 4.9
2014-Oct-24 19:33N 50°44' W 001°03'1817.8
2014-Oct-24 18:34N 50°28' W 000°51'3818.8
2014-Oct-24 16:33N 49°52' W 000°35'1919.1
2014-Oct-24 15:33N 49°34' W 000°25'1817.8
2014-Oct-24 14:33N 49°17' W 000°15'0 0.1
2014-Oct-24 13:33N 49°17' W 000°15'2 2.3
2014-Oct-24 12:33N 49°20' W 000°14'2020.0
2014-Oct-24 11:33N 49°39' W 000°24'3818.9
2014-Oct-24 09:31N 50°15' W 000°45'1818.8
2014-Oct-24 08:33N 50°32' W 000°54'1817.8
2014-Oct-24 07:33N 50°48' W 001°07'1 1.1
2014-Oct-24 06:34N 50°49' W 001°06'0 0.1
2014-Oct-24 05:33N 50°49' W 001°06'1313.2
2014-Oct-24 04:34N 50°37' W 000°57'1211.9
2014-Oct-24 03:33N 50°25' W 000°51'3310.9
2014-Oct-24 00:33N 49°54' W 000°34'1211.7
2014-Oct-23 23:34N 49°44' W 000°28'1211.6
2014-Oct-23 22:33N 49°33' W 000°21'1111.3
2014-Oct-23 21:33N 49°22' W 000°15'5 4.7
2014-Oct-23 20:34N 49°17' W 000°15'0 0.0
2014-Oct-23 19:33N 49°17' W 000°15'1312.6
2014-Oct-23 18:34N 49°29' W 000°20'5819.2
2014-Oct-23 15:32N 50°24' W 000°52'1818.8
2014-Oct-23 14:34N 50°41' W 000°60'8 8.2
2014-Oct-23 13:33N 50°49' W 001°06'0 0.1
2014-Oct-23 12:33N 50°49' W 001°06'8 8.4
2014-Oct-23 11:33N 50°42' W 000°58'1515.0
2014-Oct-23 10:32N 50°27' W 000°53'3819.4
2014-Oct-23 08:33N 49°52' W 000°29'2020.1
2014-Oct-23 07:33N 49°32' W 000°22'1615.7
2014-Oct-23 06:34N 49°17' W 000°15'0 0.0
2014-Oct-23 05:33N 49°17' W 000°15'0 0.1
2014-Oct-23 04:34N 49°17' W 000°15'1413.6
2014-Oct-23 03:33N 49°31' W 000°19'1515.1
2014-Oct-23 02:33N 49°45' W 000°27'4715.5
2014-Oct-22 23:32N 50°28' W 000°53'1616.0
2014-Oct-22 22:33N 50°43' W 001°02'6 6.1
2014-Oct-22 21:34N 50°49' W 001°06'0 0.0
2014-Oct-22 20:33N 50°49' W 001°06'6 6.1
2014-Oct-22 19:33N 50°43' W 001°02'4919.5
2014-Oct-22 17:03N 49°57' W 000°35'1020.2
2014-Oct-22 16:33N 49°48' W 000°30'2020.3
2014-Oct-22 15:34N 49°29' W 000°19'1211.9
2014-Oct-22 14:33N 49°17' W 000°15'0 0.0
2014-Oct-22 13:33N 49°17' W 000°15'0 0.0
2014-Oct-22 12:33N 49°17' W 000°15'0 0.0
2014-Oct-22 11:33N 49°17' W 000°15'0 0.0
2014-Oct-22 10:34N 49°17' W 000°15'0 0.0
2014-Oct-22 09:34N 49°17' W 000°15'0 0.1
2014-Oct-22 08:33N 49°17' W 000°15'0 0.0
2014-Oct-22 07:34N 49°17' W 000°15'0 0.1
2014-Oct-22 06:33N 49°17' W 000°15'0 0.0
2014-Oct-22 05:34N 49°17' W 000°15'1514.9
2014-Oct-22 04:34N 49°32' W 000°21'6120.5
2014-Oct-22 01:33N 50°29' W 000°54'1918.9
2014-Oct-22 00:34N 50°47' W 001°06'2 2.0
2014-Oct-21 23:34N 50°49' W 001°06'0 0.0
2014-Oct-21 22:33N 50°49' W 001°06'1212.3
2014-Oct-21 21:33N 50°37' W 000°58'4618.4
2014-Oct-21 19:04N 49°54' W 000°33'916.9
2014-Oct-21 18:33N 49°46' W 000°28'1717.4
2014-Oct-21 17:33N 49°30' W 000°19'1313.0
2014-Oct-21 16:33N 49°17' W 000°15'0 0.0
2014-Oct-21 15:33N 49°17' W 000°15'0 0.0
2014-Oct-21 14:33N 49°17' W 000°15'1 1.3
2014-Oct-21 13:33N 49°19' W 000°15'1 1.0
2014-Oct-21 12:33N 49°20' W 000°14'1918.8
2014-Oct-21 11:33N 49°38' W 000°23'4019.3
2014-Oct-21 09:30N 50°15' W 000°43'1919.8
2014-Oct-21 08:34N 50°32' W 000°54'1817.6
2014-Oct-21 07:33N 50°48' W 001°07'1 0.9
2014-Oct-21 06:33N 50°49' W 001°06'  
Track history (hours):
 
Tides and Currents Weather Stations Pressure Air Temp Water Temp Dewpoint Dewpoint Depression Visibility Wind Speed Wind Dir Waves Ship Positions

Mont Saint Michel

Last reported at 2014-Oct-31 06:33 UTC. Time now 2014-Oct-31 06:59 UTC.
Position N 49°17' W 000°15'.

Length 173 m; beam 29 m.

Type: Ship. MMSI: 227023100.

Date/timePositionNaut miles runAvg speedWind from/ knotsBaromVisibWave heightAir tempDewpointWater temp
2014-Oct-31 06:33N 49°17' W 000°15'9 9.1
2014-Oct-31 05:33N 49°26' W 000°17'1110.9
2014-Oct-31 04:33N 49°36' W 000°24'1111.3
2014-Oct-31 03:33N 49°47' W 000°30'1111.4
2014-Oct-31 02:33N 49°58' W 000°36'1211.5
2014-Oct-31 01:33N 50°09' W 000°41'1515.4
2014-Oct-31 00:33N 50°23' W 000°49'1717.1
2014-Oct-30 23:33N 50°39' W 000°58'1110.8
2014-Oct-30 22:34N 50°49' W 001°06'0 0.0
2014-Oct-30 21:34N 50°49' W 001°06'5 4.7
2014-Oct-30 20:33N 50°44' W 001°04'1717.3
2014-Oct-30 19:33N 50°27' W 000°56'5919.6
2014-Oct-30 16:32N 49°33' W 000°21'1615.0
2014-Oct-30 15:28N 49°17' W 000°15'2 1.1
2014-Oct-30 13:33N 49°19' W 000°15'2120.7
2014-Oct-30 12:33N 49°38' W 000°26'2221.3
2014-Oct-30 11:32N 49°59' W 000°38'2321.6
2014-Oct-30 10:26N 50°21' W 000°51'1820.7
2014-Oct-30 09:33N 50°38' W 000°59'1111.1
2014-Oct-30 08:34N 50°49' W 001°06'0 0.0
2014-Oct-30 07:33N 50°49' W 001°06'0 0.1
2014-Oct-30 06:33N 50°49' W 001°06'1212.0
2014-Oct-30 05:33N 50°37' W 000°59'1211.8
2014-Oct-30 04:33N 50°26' W 000°53'1212.2
2014-Oct-30 03:33N 50°15' W 000°45'2411.6
2014-Oct-30 01:31N 49°53' W 000°32'1110.9
2014-Oct-30 00:32N 49°43' W 000°25'1110.8
2014-Oct-29 23:33N 49°34' W 000°18'1111.1
2014-Oct-29 22:33N 49°23' W 000°15'5 5.1
2014-Oct-29 21:30N 49°17' W 000°15'0 0.0
2014-Oct-29 20:30N 49°17' W 000°15'1213.3
2014-Oct-29 19:33N 49°30' W 000°17'2220.3
2014-Oct-29 18:29N 49°49' W 000°32'2719.2
2014-Oct-29 17:05N 50°14' W 000°46'1019.1
2014-Oct-29 16:33N 50°24' W 000°52'1918.7
2014-Oct-29 15:33N 50°41' W 001°02'8 7.7
2014-Oct-29 14:33N 50°49' W 001°06'0 0.0
2014-Oct-29 13:33N 50°49' W 001°06'4 4.4
2014-Oct-29 12:33N 50°44' W 001°05'1818.4
2014-Oct-29 11:34N 50°28' W 000°51'4720.1
2014-Oct-29 09:12N 49°43' W 000°27'1319.1
2014-Oct-29 08:32N 49°31' W 000°21'1514.8
2014-Oct-29 07:33N 49°17' W 000°15'0 0.0
2014-Oct-29 06:27N 49°17' W 000°15'0 0.1
2014-Oct-29 05:33N 49°17' W 000°15'1413.8
2014-Oct-29 04:33N 49°31' W 000°21'1211.3
2014-Oct-29 03:31N 49°41' W 000°27'3715.8
2014-Oct-29 01:09N 50°17' W 000°47'1016.0
2014-Oct-29 00:33N 50°26' W 000°53'1615.8
2014-Oct-28 23:33N 50°41' W 000°58'9 9.2
2014-Oct-28 22:33N 50°49' W 001°06'0 0.0
2014-Oct-28 21:33N 50°49' W 001°06'5 4.7
2014-Oct-28 20:33N 50°44' W 001°04'1917.8
2014-Oct-28 19:29N 50°26' W 000°55'4719.3
2014-Oct-28 17:03N 49°42' W 000°29'1120.3
2014-Oct-28 16:32N 49°33' W 000°22'1615.0
2014-Oct-28 15:28N 49°17' W 000°15'0 0.0
2014-Oct-28 14:32N 49°17' W 000°15'6 6.0
2014-Oct-28 13:28N 49°24' W 000°16'1819.2
2014-Oct-28 12:31N 49°41' W 000°26'4219.6
2014-Oct-28 10:23N 50°20' W 000°48'1619.4
2014-Oct-28 09:33N 50°35' W 000°57'1514.8
2014-Oct-28 08:33N 50°49' W 001°07'0 0.5
2014-Oct-28 07:34N 50°49' W 001°06'0 0.2
2014-Oct-28 06:34N 50°49' W 001°06'1313.4
2014-Oct-28 05:33N 50°36' W 000°58'1111.3
2014-Oct-28 04:33N 50°25' W 000°54'1111.1
2014-Oct-28 03:33N 50°14' W 000°49'1311.7
2014-Oct-28 02:26N 50°04' W 000°38'1011.6
2014-Oct-28 01:33N 49°54' W 000°32'1111.1
2014-Oct-28 00:33N 49°44' W 000°26'1111.1
2014-Oct-27 23:33N 49°33' W 000°20'1111.1
2014-Oct-27 22:33N 49°23' W 000°15'6 5.5
2014-Oct-27 21:32N 49°17' W 000°15'0 0.0
2014-Oct-27 20:31N 49°17' W 000°15'0 0.0
2014-Oct-27 19:31N 49°17' W 000°15'0 0.0
2014-Oct-27 18:33N 49°17' W 000°15'0 0.0
2014-Oct-27 17:32N 49°17' W 000°15'0 0.0
2014-Oct-27 16:33N 49°17' W 000°15'0 0.0
2014-Oct-27 15:33N 49°17' W 000°15'0 0.0
2014-Oct-27 14:33N 49°17' W 000°15'2 2.1
2014-Oct-27 13:33N 49°19' W 000°14'2019.7
2014-Oct-27 12:33N 49°38' W 000°25'2019.6
2014-Oct-27 11:33N 49°56' W 000°36'2919.3
2014-Oct-27 10:05N 50°23' W 000°50'1019.2
2014-Oct-27 09:34N 50°33' W 000°55'1716.5
2014-Oct-27 08:33N 50°48' W 001°07'1 1.3
2014-Oct-27 07:33N 50°49' W 001°06'0 0.1
2014-Oct-27 06:34N 50°49' W 001°06'1313.1
2014-Oct-27 05:33N 50°37' W 000°58'1110.6
2014-Oct-27 04:32N 50°26' W 000°55'2610.9
2014-Oct-27 02:11N 50°03' W 000°38'711.6
2014-Oct-27 01:33N 49°56' W 000°34'1211.5
2014-Oct-27 00:33N 49°45' W 000°27'1211.5
2014-Oct-26 23:33N 49°34' W 000°21'1111.3
2014-Oct-26 22:33N 49°24' W 000°15'6 6.4
2014-Oct-26 21:33N 49°17' W 000°15'0 0.0
2014-Oct-26 20:33N 49°17' W 000°15'0 0.0
2014-Oct-26 19:33N 49°17' W 000°15'0 0.0
2014-Oct-26 18:33N 49°17' W 000°15'0 0.0
2014-Oct-26 17:33N 49°17' W 000°15'0 0.0
2014-Oct-26 16:33N 49°17' W 000°15'0 0.0
2014-Oct-26 15:33N 49°17' W 000°15'0 0.0
2014-Oct-26 14:33N 49°17' W 000°15'2 2.4
2014-Oct-26 13:33N 49°20' W 000°14'2019.5
2014-Oct-26 12:33N 49°38' W 000°24'3919.3
2014-Oct-26 10:31N 50°15' W 000°44'1818.9
2014-Oct-26 09:33N 50°32' W 000°55'1716.9
2014-Oct-26 08:33N 50°47' W 001°07'1 1.3
2014-Oct-26 07:33N 50°49' W 001°06'0 0.1
2014-Oct-26 06:34N 50°49' W 001°06'1313.3
2014-Oct-26 05:33N 50°37' W 000°56'1312.6
2014-Oct-26 04:33N 50°24' W 000°53'4711.5
2014-Oct-26 00:26N 49°41' W 000°23'1111.7
2014-Oct-25 23:32N 49°31' W 000°19'6 6.5
2014-Oct-25 22:33N 49°25' W 000°17'4 3.3
2014-Oct-25 21:26N 49°22' W 000°14'4 4.8
2014-Oct-25 20:33N 49°17' W 000°15'0 0.0
2014-Oct-25 19:33N 49°17' W 000°15'1111.5
2014-Oct-25 18:33N 49°29' W 000°18'5719.1
2014-Oct-25 15:33N 50°22' W 000°50'1919.3
2014-Oct-25 14:34N 50°40' W 001°00'9 9.3
2014-Oct-25 13:33N 50°49' W 001°06'0 0.0
2014-Oct-25 12:33N 50°49' W 001°06'5 4.6
2014-Oct-25 11:33N 50°44' W 001°04'6720.4
2014-Oct-25 08:16N 49°41' W 000°28'1318.4
2014-Oct-25 07:33N 49°29' W 000°21'1212.1
2014-Oct-25 06:33N 49°17' W 000°15'0 0.0
2014-Oct-25 05:32N 49°17' W 000°15'0 0.1
2014-Oct-25 04:33N 49°17' W 000°15'1616.1
2014-Oct-25 03:33N 49°33' W 000°21'1615.6
2014-Oct-25 02:33N 49°47' W 000°30'4013.2
2014-Oct-24 23:32N 50°25' W 000°52'1616.7
2014-Oct-24 22:33N 50°40' W 000°60'9 9.3
2014-Oct-24 21:33N 50°49' W 001°06'0 0.0
2014-Oct-24 20:33N 50°49' W 001°06'5 4.9
2014-Oct-24 19:33N 50°44' W 001°03'1817.8
2014-Oct-24 18:34N 50°28' W 000°51'3818.8
2014-Oct-24 16:33N 49°52' W 000°35'1919.1
2014-Oct-24 15:33N 49°34' W 000°25'1817.8
2014-Oct-24 14:33N 49°17' W 000°15'0 0.1
2014-Oct-24 13:33N 49°17' W 000°15'2 2.3
2014-Oct-24 12:33N 49°20' W 000°14'2020.0
2014-Oct-24 11:33N 49°39' W 000°24'3818.9
2014-Oct-24 09:31N 50°15' W 000°45'1818.8
2014-Oct-24 08:33N 50°32' W 000°54'1817.8
2014-Oct-24 07:33N 50°48' W 001°07'1 1.1
2014-Oct-24 06:34N 50°49' W 001°06'0 0.1
2014-Oct-24 05:33N 50°49' W 001°06'1313.2
2014-Oct-24 04:34N 50°37' W 000°57'1211.9
2014-Oct-24 03:33N 50°25' W 000°51'3310.9
2014-Oct-24 00:33N 49°54' W 000°34'1211.7
2014-Oct-23 23:34N 49°44' W 000°28'1211.6
2014-Oct-23 22:33N 49°33' W 000°21'1111.3
2014-Oct-23 21:33N 49°22' W 000°15'5 4.7
2014-Oct-23 20:34N 49°17' W 000°15'0 0.0
2014-Oct-23 19:33N 49°17' W 000°15'1312.6
2014-Oct-23 18:34N 49°29' W 000°20'5819.2
2014-Oct-23 15:32N 50°24' W 000°52'1818.8
2014-Oct-23 14:34N 50°41' W 000°60'8 8.2
2014-Oct-23 13:33N 50°49' W 001°06'0 0.1
2014-Oct-23 12:33N 50°49' W 001°06'8 8.4
2014-Oct-23 11:33N 50°42' W 000°58'1515.0
2014-Oct-23 10:32N 50°27' W 000°53'3819.4
2014-Oct-23 08:33N 49°52' W 000°29'2020.1
2014-Oct-23 07:33N 49°32' W 000°22'1615.7
2014-Oct-23 06:34N 49°17' W 000°15'0 0.0
2014-Oct-23 05:33N 49°17' W 000°15'0 0.1
2014-Oct-23 04:34N 49°17' W 000°15'1413.6
2014-Oct-23 03:33N 49°31' W 000°19'1515.1
2014-Oct-23 02:33N 49°45' W 000°27'4715.5
2014-Oct-22 23:32N 50°28' W 000°53'1616.0
2014-Oct-22 22:33N 50°43' W 001°02'6 6.1
2014-Oct-22 21:34N 50°49' W 001°06'0 0.0
2014-Oct-22 20:33N 50°49' W 001°06'6 6.1
2014-Oct-22 19:33N 50°43' W 001°02'4919.5
2014-Oct-22 17:03N 49°57' W 000°35'1020.2
2014-Oct-22 16:33N 49°48' W 000°30'2020.3
2014-Oct-22 15:34N 49°29' W 000°19'1211.9
2014-Oct-22 14:33N 49°17' W 000°15'0 0.0
2014-Oct-22 13:33N 49°17' W 000°15'0 0.0
2014-Oct-22 12:33N 49°17' W 000°15'0 0.0
2014-Oct-22 11:33N 49°17' W 000°15'0 0.0
2014-Oct-22 10:34N 49°17' W 000°15'0 0.0
2014-Oct-22 09:34N 49°17' W 000°15'0 0.1
2014-Oct-22 08:33N 49°17' W 000°15'0 0.0
2014-Oct-22 07:34N 49°17' W 000°15'0 0.1
2014-Oct-22 06:33N 49°17' W 000°15'0 0.0
2014-Oct-22 05:34N 49°17' W 000°15'1514.9
2014-Oct-22 04:34N 49°32' W 000°21'6120.5
2014-Oct-22 01:33N 50°29' W 000°54'1918.9
2014-Oct-22 00:34N 50°47' W 001°06'2 2.0
2014-Oct-21 23:34N 50°49' W 001°06'0 0.0
2014-Oct-21 22:33N 50°49' W 001°06'1212.3
2014-Oct-21 21:33N 50°37' W 000°58'4618.4
2014-Oct-21 19:04N 49°54' W 000°33'916.9
2014-Oct-21 18:33N 49°46' W 000°28'1717.4
2014-Oct-21 17:33N 49°30' W 000°19'1313.0
2014-Oct-21 16:33N 49°17' W 000°15'0 0.0
2014-Oct-21 15:33N 49°17' W 000°15'0 0.0
2014-Oct-21 14:33N 49°17' W 000°15'1 1.3
2014-Oct-21 13:33N 49°19' W 000°15'1 1.0
2014-Oct-21 12:33N 49°20' W 000°14'1918.8
2014-Oct-21 11:33N 49°38' W 000°23'4019.3
2014-Oct-21 09:30N 50°15' W 000°43'1919.8
2014-Oct-21 08:34N 50°32' W 000°54'1817.6
2014-Oct-21 07:33N 50°48' W 001°07'1 0.9
2014-Oct-21 06:33N 50°49' W 001°06'  

Dump ship's entire track history